sensor_id;sensor_type;location;lat;lon;timestamp;P1;durP1;ratioP1;P2;durP2;ratioP2
37455;SDS011;23316;50.718;7.328;2023-08-12T00:02:13;23.33;;;15.98;;
37455;SDS011;23316;50.718;7.328;2023-08-12T00:04:42;27.15;;;17.08;;
37455;SDS011;23316;50.718;7.328;2023-08-12T00:07:11;23.55;;;15.80;;
37455;SDS011;23316;50.718;7.328;2023-08-12T00:09:39;27.08;;;18.13;;
37455;SDS011;23316;50.718;7.328;2023-08-12T00:12:06;24.55;;;17.70;;
37455;SDS011;23316;50.718;7.328;2023-08-12T00:14:33;26.33;;;16.83;;
37455;SDS011;23316;50.718;7.328;2023-08-12T00:17:00;25.95;;;17.90;;
37455;SDS011;23316;50.718;7.328;2023-08-12T00:19:28;26.65;;;18.13;;
37455;SDS011;23316;50.718;7.328;2023-08-12T00:21:56;28.33;;;18.23;;
37455;SDS011;23316;50.718;7.328;2023-08-12T00:24:24;24.95;;;17.15;;
37455;SDS011;23316;50.718;7.328;2023-08-12T00:26:51;24.15;;;19.42;;
37455;SDS011;23316;50.718;7.328;2023-08-12T00:29:18;25.23;;;18.83;;
37455;SDS011;23316;50.718;7.328;2023-08-12T00:31:45;27.40;;;19.35;;
37455;SDS011;23316;50.718;7.328;2023-08-12T00:34:12;28.05;;;19.10;;
37455;SDS011;23316;50.718;7.328;2023-08-12T00:36:40;26.00;;;18.58;;
37455;SDS011;23316;50.718;7.328;2023-08-12T00:39:08;25.60;;;18.98;;
37455;SDS011;23316;50.718;7.328;2023-08-12T00:41:36;26.83;;;19.75;;
37455;SDS011;23316;50.718;7.328;2023-08-12T00:44:03;21.33;;;15.55;;
37455;SDS011;23316;50.718;7.328;2023-08-12T00:46:31;27.75;;;20.13;;
37455;SDS011;23316;50.718;7.328;2023-08-12T00:48:58;29.77;;;20.10;;
37455;SDS011;23316;50.718;7.328;2023-08-12T00:51:26;19.27;;;15.35;;
37455;SDS011;23316;50.718;7.328;2023-08-12T00:53:54;22.65;;;16.67;;
37455;SDS011;23316;50.718;7.328;2023-08-12T00:56:24;50.75;;;16.95;;
37455;SDS011;23316;50.718;7.328;2023-08-12T00:58:53;20.17;;;16.73;;
37455;SDS011;23316;50.718;7.328;2023-08-12T01:01:20;23.15;;;16.17;;
37455;SDS011;23316;50.718;7.328;2023-08-12T01:03:47;25.20;;;16.23;;
37455;SDS011;23316;50.718;7.328;2023-08-12T01:06:15;20.88;;;15.27;;
37455;SDS011;23316;50.718;7.328;2023-08-12T01:08:42;14.52;;;11.68;;
37455;SDS011;23316;50.718;7.328;2023-08-12T01:11:11;18.63;;;13.82;;
37455;SDS011;23316;50.718;7.328;2023-08-12T01:13:46;15.95;;;11.63;;
37455;SDS011;23316;50.718;7.328;2023-08-12T01:16:18;15.38;;;11.02;;
37455;SDS011;23316;50.718;7.328;2023-08-12T01:18:48;14.07;;;10.93;;
37455;SDS011;23316;50.718;7.328;2023-08-12T01:21:16;18.40;;;13.60;;
37455;SDS011;23316;50.718;7.328;2023-08-12T01:23:48;16.45;;;11.27;;
37455;SDS011;23316;50.718;7.328;2023-08-12T01:26:16;14.93;;;11.27;;
37455;SDS011;23316;50.718;7.328;2023-08-12T01:28:44;17.52;;;12.02;;
37455;SDS011;23316;50.718;7.328;2023-08-12T01:31:12;15.75;;;10.10;;
37455;SDS011;23316;50.718;7.328;2023-08-12T01:33:46;14.38;;;11.48;;
37455;SDS011;23316;50.718;7.328;2023-08-12T01:38:46;9.48;;;7.32;;
37455;SDS011;23316;50.718;7.328;2023-08-12T01:41:18;8.90;;;6.80;;
37455;SDS011;23316;50.718;7.328;2023-08-12T01:43:46;9.68;;;6.53;;
37455;SDS011;23316;50.718;7.328;2023-08-12T01:46:13;8.10;;;6.30;;
37455;SDS011;23316;50.718;7.328;2023-08-12T01:48:40;7.38;;;6.05;;
37455;SDS011;23316;50.718;7.328;2023-08-12T01:51:08;9.10;;;6.07;;
37455;SDS011;23316;50.718;7.328;2023-08-12T01:53:35;8.68;;;5.60;;
37455;SDS011;23316;50.718;7.328;2023-08-12T01:56:04;8.52;;;5.45;;
37455;SDS011;23316;50.718;7.328;2023-08-12T01:58:31;8.65;;;5.60;;
37455;SDS011;23316;50.718;7.328;2023-08-12T02:00:58;10.30;;;5.28;;
37455;SDS011;23316;50.718;7.328;2023-08-12T02:03:25;7.30;;;5.60;;
37455;SDS011;23316;50.718;7.328;2023-08-12T02:05:53;6.88;;;5.05;;
37455;SDS011;23316;50.718;7.328;2023-08-12T02:08:20;9.32;;;6.15;;
37455;SDS011;23316;50.718;7.328;2023-08-12T02:10:47;8.35;;;5.15;;
37455;SDS011;23316;50.718;7.328;2023-08-12T02:13:17;7.53;;;4.60;;
37455;SDS011;23316;50.718;7.328;2023-08-12T02:15:44;6.85;;;5.35;;
37455;SDS011;23316;50.718;7.328;2023-08-12T02:18:11;7.88;;;5.20;;
37455;SDS011;23316;50.718;7.328;2023-08-12T02:20:40;8.27;;;5.07;;
37455;SDS011;23316;50.718;7.328;2023-08-12T02:23:07;6.85;;;4.88;;
37455;SDS011;23316;50.718;7.328;2023-08-12T02:25:34;5.85;;;4.53;;
37455;SDS011;23316;50.718;7.328;2023-08-12T02:28:01;5.40;;;4.35;;
37455;SDS011;23316;50.718;7.328;2023-08-12T02:30:30;6.68;;;4.65;;
37455;SDS011;23316;50.718;7.328;2023-08-12T02:32:58;8.82;;;4.47;;
37455;SDS011;23316;50.718;7.328;2023-08-12T02:35:26;5.95;;;4.68;;
37455;SDS011;23316;50.718;7.328;2023-08-12T02:37:53;7.53;;;4.40;;
37455;SDS011;23316;50.718;7.328;2023-08-12T02:40:20;9.70;;;5.40;;
37455;SDS011;23316;50.718;7.328;2023-08-12T02:42:47;7.82;;;5.28;;
37455;SDS011;23316;50.718;7.328;2023-08-12T02:45:15;6.68;;;4.95;;
37455;SDS011;23316;50.718;7.328;2023-08-12T02:47:43;6.97;;;4.72;;
37455;SDS011;23316;50.718;7.328;2023-08-12T02:50:11;8.05;;;5.70;;
37455;SDS011;23316;50.718;7.328;2023-08-12T02:52:38;7.38;;;5.57;;
37455;SDS011;23316;50.718;7.328;2023-08-12T02:55:06;7.05;;;5.28;;
37455;SDS011;23316;50.718;7.328;2023-08-12T02:57:33;7.43;;;5.60;;
37455;SDS011;23316;50.718;7.328;2023-08-12T03:00:01;8.10;;;5.43;;
37455;SDS011;23316;50.718;7.328;2023-08-12T03:02:29;6.78;;;5.28;;
37455;SDS011;23316;50.718;7.328;2023-08-12T03:04:58;8.45;;;5.45;;
37455;SDS011;23316;50.718;7.328;2023-08-12T03:07:25;7.25;;;4.82;;
37455;SDS011;23316;50.718;7.328;2023-08-12T03:09:53;7.63;;;4.95;;
37455;SDS011;23316;50.718;7.328;2023-08-12T03:12:20;8.80;;;5.80;;
37455;SDS011;23316;50.718;7.328;2023-08-12T03:14:47;7.05;;;5.15;;
37455;SDS011;23316;50.718;7.328;2023-08-12T03:17:15;6.65;;;4.65;;
37455;SDS011;23316;50.718;7.328;2023-08-12T03:19:43;8.95;;;5.05;;
37455;SDS011;23316;50.718;7.328;2023-08-12T03:22:11;5.63;;;4.55;;
37455;SDS011;23316;50.718;7.328;2023-08-12T03:24:38;8.02;;;5.38;;
37455;SDS011;23316;50.718;7.328;2023-08-12T03:27:06;8.63;;;4.60;;
37455;SDS011;23316;50.718;7.328;2023-08-12T03:29:33;7.85;;;4.93;;
37455;SDS011;23316;50.718;7.328;2023-08-12T03:32:00;6.93;;;3.92;;
37455;SDS011;23316;50.718;7.328;2023-08-12T03:34:28;6.68;;;4.13;;
37455;SDS011;23316;50.718;7.328;2023-08-12T03:36:55;5.43;;;4.10;;
37455;SDS011;23316;50.718;7.328;2023-08-12T03:39:24;4.97;;;4.00;;
37455;SDS011;23316;50.718;7.328;2023-08-12T03:41:52;7.18;;;5.20;;
37455;SDS011;23316;50.718;7.328;2023-08-12T03:44:19;7.70;;;4.40;;
37455;SDS011;23316;50.718;7.328;2023-08-12T03:46:46;7.40;;;4.35;;
37455;SDS011;23316;50.718;7.328;2023-08-12T03:49:14;4.88;;;4.38;;
37455;SDS011;23316;50.718;7.328;2023-08-12T03:51:41;7.95;;;4.80;;
37455;SDS011;23316;50.718;7.328;2023-08-12T03:54:08;5.88;;;4.10;;
37455;SDS011;23316;50.718;7.328;2023-08-12T03:56:37;7.43;;;4.57;;
37455;SDS011;23316;50.718;7.328;2023-08-12T03:59:05;6.95;;;4.65;;
37455;SDS011;23316;50.718;7.328;2023-08-12T04:01:32;7.93;;;4.07;;
37455;SDS011;23316;50.718;7.328;2023-08-12T04:03:59;4.75;;;3.67;;
37455;SDS011;23316;50.718;7.328;2023-08-12T04:06:26;5.72;;;3.92;;
37455;SDS011;23316;50.718;7.328;2023-08-12T04:08:54;5.03;;;3.60;;
37455;SDS011;23316;50.718;7.328;2023-08-12T04:11:21;5.10;;;3.75;;
37455;SDS011;23316;50.718;7.328;2023-08-12T04:13:50;5.20;;;3.80;;
37455;SDS011;23316;50.718;7.328;2023-08-12T04:16:17;5.65;;;3.90;;
37455;SDS011;23316;50.718;7.328;2023-08-12T04:18:45;6.88;;;3.95;;
37455;SDS011;23316;50.718;7.328;2023-08-12T04:21:12;4.63;;;3.67;;
37455;SDS011;23316;50.718;7.328;2023-08-12T04:23:39;5.45;;;4.07;;
37455;SDS011;23316;50.718;7.328;2023-08-12T04:26:06;6.60;;;3.97;;
37455;SDS011;23316;50.718;7.328;2023-08-12T04:28:35;7.93;;;4.85;;
37455;SDS011;23316;50.718;7.328;2023-08-12T04:31:07;6.35;;;4.10;;
37455;SDS011;23316;50.718;7.328;2023-08-12T04:33:34;7.45;;;4.40;;
37455;SDS011;23316;50.718;7.328;2023-08-12T04:36:01;5.28;;;3.92;;
37455;SDS011;23316;50.718;7.328;2023-08-12T04:38:29;6.35;;;4.47;;
37455;SDS011;23316;50.718;7.328;2023-08-12T04:40:56;6.38;;;4.22;;
37455;SDS011;23316;50.718;7.328;2023-08-12T04:43:25;6.63;;;4.03;;
37455;SDS011;23316;50.718;7.328;2023-08-12T04:45:53;5.63;;;4.15;;
37455;SDS011;23316;50.718;7.328;2023-08-12T04:48:21;6.30;;;4.18;;
37455;SDS011;23316;50.718;7.328;2023-08-12T04:50:49;4.53;;;3.78;;
37455;SDS011;23316;50.718;7.328;2023-08-12T04:53:16;9.20;;;3.53;;
37455;SDS011;23316;50.718;7.328;2023-08-12T04:55:43;4.88;;;3.38;;
37455;SDS011;23316;50.718;7.328;2023-08-12T04:58:11;5.68;;;3.60;;
37455;SDS011;23316;50.718;7.328;2023-08-12T05:00:38;6.45;;;3.80;;
37455;SDS011;23316;50.718;7.328;2023-08-12T05:03:05;7.38;;;4.22;;
37455;SDS011;23316;50.718;7.328;2023-08-12T05:05:36;5.80;;;3.35;;
37455;SDS011;23316;50.718;7.328;2023-08-12T05:08:05;4.63;;;3.60;;
37455;SDS011;23316;50.718;7.328;2023-08-12T05:10:32;5.25;;;4.00;;
37455;SDS011;23316;50.718;7.328;2023-08-12T05:13:00;4.43;;;3.70;;
37455;SDS011;23316;50.718;7.328;2023-08-12T05:21:17;5.40;;;4.43;;
37455;SDS011;23316;50.718;7.328;2023-08-12T05:23:44;6.88;;;4.63;;
37455;SDS011;23316;50.718;7.328;2023-08-12T05:26:12;5.95;;;4.72;;
37455;SDS011;23316;50.718;7.328;2023-08-12T05:28:39;6.53;;;4.57;;
37455;SDS011;23316;50.718;7.328;2023-08-12T05:31:07;6.28;;;4.50;;
37455;SDS011;23316;50.718;7.328;2023-08-12T05:33:34;6.82;;;4.90;;
37455;SDS011;23316;50.718;7.328;2023-08-12T05:36:02;5.20;;;4.18;;
37455;SDS011;23316;50.718;7.328;2023-08-12T05:38:31;4.97;;;4.18;;
37455;SDS011;23316;50.718;7.328;2023-08-12T05:40:59;5.00;;;4.28;;
37455;SDS011;23316;50.718;7.328;2023-08-12T05:43:27;7.03;;;4.90;;
37455;SDS011;23316;50.718;7.328;2023-08-12T05:45:54;6.88;;;5.40;;
37455;SDS011;23316;50.718;7.328;2023-08-12T05:48:21;7.60;;;5.15;;
37455;SDS011;23316;50.718;7.328;2023-08-12T05:50:48;7.13;;;5.05;;
37455;SDS011;23316;50.718;7.328;2023-08-12T05:53:16;5.03;;;4.53;;
37455;SDS011;23316;50.718;7.328;2023-08-12T05:55:44;6.25;;;5.03;;
37455;SDS011;23316;50.718;7.328;2023-08-12T05:58:11;5.25;;;4.35;;
37455;SDS011;23316;50.718;7.328;2023-08-12T06:00:39;4.15;;;3.55;;
37455;SDS011;23316;50.718;7.328;2023-08-12T06:03:06;8.43;;;4.60;;
37455;SDS011;23316;50.718;7.328;2023-08-12T06:05:33;4.40;;;3.95;;
37455;SDS011;23316;50.718;7.328;2023-08-12T06:08:00;7.72;;;4.25;;
37455;SDS011;23316;50.718;7.328;2023-08-12T06:10:28;5.03;;;4.13;;
37455;SDS011;23316;50.718;7.328;2023-08-12T06:12:56;6.38;;;3.60;;
37455;SDS011;23316;50.718;7.328;2023-08-12T06:15:24;5.97;;;3.78;;
37455;SDS011;23316;50.718;7.328;2023-08-12T06:17:51;6.55;;;3.92;;
37455;SDS011;23316;50.718;7.328;2023-08-12T06:20:18;7.65;;;4.03;;
37455;SDS011;23316;50.718;7.328;2023-08-12T06:22:45;5.75;;;2.92;;
37455;SDS011;23316;50.718;7.328;2023-08-12T06:25:13;3.67;;;2.50;;
37455;SDS011;23316;50.718;7.328;2023-08-12T06:27:40;8.95;;;2.53;;
37455;SDS011;23316;50.718;7.328;2023-08-12T06:30:09;4.07;;;2.13;;
37455;SDS011;23316;50.718;7.328;2023-08-12T06:32:38;2.95;;;1.90;;
37455;SDS011;23316;50.718;7.328;2023-08-12T06:35:05;4.97;;;2.50;;
37455;SDS011;23316;50.718;7.328;2023-08-12T06:37:33;3.10;;;2.03;;
37455;SDS011;23316;50.718;7.328;2023-08-12T06:40:00;5.00;;;2.60;;
37455;SDS011;23316;50.718;7.328;2023-08-12T06:42:29;3.67;;;2.13;;
37455;SDS011;23316;50.718;7.328;2023-08-12T06:44:56;4.20;;;2.10;;
37455;SDS011;23316;50.718;7.328;2023-08-12T06:47:26;3.20;;;2.22;;
37455;SDS011;23316;50.718;7.328;2023-08-12T06:49:55;4.82;;;2.33;;
37455;SDS011;23316;50.718;7.328;2023-08-12T06:52:22;3.10;;;2.10;;
37455;SDS011;23316;50.718;7.328;2023-08-12T06:54:49;3.10;;;2.38;;
37455;SDS011;23316;50.718;7.328;2023-08-12T06:57:16;3.90;;;2.30;;
37455;SDS011;23316;50.718;7.328;2023-08-12T06:59:44;3.35;;;2.05;;
37455;SDS011;23316;50.718;7.328;2023-08-12T07:02:11;4.82;;;2.00;;
37455;SDS011;23316;50.718;7.328;2023-08-12T07:04:40;3.90;;;2.10;;
37455;SDS011;23316;50.718;7.328;2023-08-12T07:07:07;2.67;;;1.83;;
37455;SDS011;23316;50.718;7.328;2023-08-12T07:09:34;5.25;;;2.10;;
37455;SDS011;23316;50.718;7.328;2023-08-12T07:12:01;3.30;;;2.10;;
37455;SDS011;23316;50.718;7.328;2023-08-12T07:14:29;4.15;;;2.08;;
37455;SDS011;23316;50.718;7.328;2023-08-12T07:16:56;2.42;;;1.88;;
37455;SDS011;23316;50.718;7.328;2023-08-12T07:19:24;3.78;;;2.10;;
37455;SDS011;23316;50.718;7.328;2023-08-12T07:21:52;2.72;;;1.73;;
37455;SDS011;23316;50.718;7.328;2023-08-12T07:24:19;2.65;;;1.92;;
37455;SDS011;23316;50.718;7.328;2023-08-12T07:26:47;4.00;;;2.17;;
37455;SDS011;23316;50.718;7.328;2023-08-12T07:29:14;2.10;;;1.73;;
37455;SDS011;23316;50.718;7.328;2023-08-12T07:31:42;4.63;;;1.80;;
37455;SDS011;23316;50.718;7.328;2023-08-12T07:34:09;3.70;;;2.13;;
37455;SDS011;23316;50.718;7.328;2023-08-12T07:36:38;5.63;;;2.13;;
37455;SDS011;23316;50.718;7.328;2023-08-12T07:39:07;6.32;;;2.13;;
37455;SDS011;23316;50.718;7.328;2023-08-12T07:41:35;3.15;;;2.15;;
37455;SDS011;23316;50.718;7.328;2023-08-12T07:44:03;3.22;;;1.90;;
37455;SDS011;23316;50.718;7.328;2023-08-12T07:46:30;5.45;;;2.20;;
37455;SDS011;23316;50.718;7.328;2023-08-12T07:48:58;4.32;;;2.60;;
37455;SDS011;23316;50.718;7.328;2023-08-12T07:51:25;6.18;;;2.33;;
37455;SDS011;23316;50.718;7.328;2023-08-12T07:53:52;3.47;;;2.28;;
37455;SDS011;23316;50.718;7.328;2023-08-12T07:56:21;3.65;;;2.38;;
37455;SDS011;23316;50.718;7.328;2023-08-12T07:58:48;3.55;;;2.20;;
37455;SDS011;23316;50.718;7.328;2023-08-12T08:01:15;3.88;;;2.30;;
37455;SDS011;23316;50.718;7.328;2023-08-12T08:03:42;4.25;;;2.00;;
37455;SDS011;23316;50.718;7.328;2023-08-12T08:06:10;5.07;;;2.17;;
37455;SDS011;23316;50.718;7.328;2023-08-12T08:08:37;3.35;;;2.13;;
37455;SDS011;23316;50.718;7.328;2023-08-12T08:11:05;4.80;;;2.58;;
37455;SDS011;23316;50.718;7.328;2023-08-12T08:13:34;2.75;;;2.10;;
37455;SDS011;23316;50.718;7.328;2023-08-12T08:16:01;3.05;;;2.10;;
37455;SDS011;23316;50.718;7.328;2023-08-12T08:18:29;5.60;;;2.35;;
37455;SDS011;23316;50.718;7.328;2023-08-12T08:20:56;4.90;;;2.25;;
37455;SDS011;23316;50.718;7.328;2023-08-12T08:23:23;4.43;;;2.50;;
37455;SDS011;23316;50.718;7.328;2023-08-12T08:25:50;3.15;;;2.00;;
37455;SDS011;23316;50.718;7.328;2023-08-12T08:28:18;4.07;;;2.10;;
37455;SDS011;23316;50.718;7.328;2023-08-12T08:30:46;3.35;;;2.03;;
37455;SDS011;23316;50.718;7.328;2023-08-12T08:33:13;4.03;;;2.42;;
37455;SDS011;23316;50.718;7.328;2023-08-12T08:35:41;2.08;;;1.85;;
37455;SDS011;23316;50.718;7.328;2023-08-12T08:38:08;3.28;;;1.90;;
37455;SDS011;23316;50.718;7.328;2023-08-12T08:40:35;6.82;;;2.22;;
37455;SDS011;23316;50.718;7.328;2023-08-12T08:43:04;2.63;;;1.50;;
37455;SDS011;23316;50.718;7.328;2023-08-12T08:45:34;3.58;;;2.03;;
37455;SDS011;23316;50.718;7.328;2023-08-12T08:48:03;4.22;;;2.20;;
37455;SDS011;23316;50.718;7.328;2023-08-12T08:50:33;2.67;;;1.83;;
37455;SDS011;23316;50.718;7.328;2023-08-12T08:53:01;2.85;;;2.15;;
37455;SDS011;23316;50.718;7.328;2023-08-12T08:55:31;3.65;;;2.00;;
37455;SDS011;23316;50.718;7.328;2023-08-12T08:57:58;3.03;;;1.92;;
37455;SDS011;23316;50.718;7.328;2023-08-12T09:00:26;3.13;;;2.05;;
37455;SDS011;23316;50.718;7.328;2023-08-12T09:02:55;3.28;;;2.20;;
37455;SDS011;23316;50.718;7.328;2023-08-12T09:05:26;4.75;;;2.13;;
37455;SDS011;23316;50.718;7.328;2023-08-12T09:07:55;3.88;;;2.20;;
37455;SDS011;23316;50.718;7.328;2023-08-12T09:10:24;8.40;;;1.88;;
37455;SDS011;23316;50.718;7.328;2023-08-12T09:12:54;3.08;;;1.95;;
37455;SDS011;23316;50.718;7.328;2023-08-12T09:15:22;3.67;;;1.88;;
37455;SDS011;23316;50.718;7.328;2023-08-12T09:17:49;3.47;;;2.10;;
37455;SDS011;23316;50.718;7.328;2023-08-12T09:20:17;5.60;;;2.60;;
37455;SDS011;23316;50.718;7.328;2023-08-12T09:22:45;3.47;;;2.08;;
37455;SDS011;23316;50.718;7.328;2023-08-12T09:25:21;4.90;;;2.10;;
37455;SDS011;23316;50.718;7.328;2023-08-12T09:27:49;4.05;;;2.50;;
37455;SDS011;23316;50.718;7.328;2023-08-12T09:30:16;5.72;;;2.53;;
37455;SDS011;23316;50.718;7.328;2023-08-12T09:32:44;4.70;;;2.67;;
37455;SDS011;23316;50.718;7.328;2023-08-12T09:35:30;2.05;;;1.75;;
37455;SDS011;23316;50.718;7.328;2023-08-12T09:38:05;2.85;;;2.05;;
37455;SDS011;23316;50.718;7.328;2023-08-12T09:40:33;3.88;;;1.90;;
37455;SDS011;23316;50.718;7.328;2023-08-12T09:43:02;2.42;;;2.10;;
37455;SDS011;23316;50.718;7.328;2023-08-12T09:45:30;3.05;;;2.00;;
37455;SDS011;23316;50.718;7.328;2023-08-12T09:47:58;2.95;;;2.03;;
37455;SDS011;23316;50.718;7.328;2023-08-12T09:50:25;2.95;;;1.90;;
37455;SDS011;23316;50.718;7.328;2023-08-12T09:52:53;3.17;;;1.95;;
37455;SDS011;23316;50.718;7.328;2023-08-12T09:55:23;2.80;;;1.98;;
37455;SDS011;23316;50.718;7.328;2023-08-12T09:57:52;2.83;;;1.85;;
37455;SDS011;23316;50.718;7.328;2023-08-12T10:00:20;3.08;;;1.98;;
37455;SDS011;23316;50.718;7.328;2023-08-12T10:02:49;2.92;;;1.98;;
37455;SDS011;23316;50.718;7.328;2023-08-12T10:05:19;4.57;;;2.40;;
37455;SDS011;23316;50.718;7.328;2023-08-12T10:07:48;3.83;;;2.30;;
37455;SDS011;23316;50.718;7.328;2023-08-12T10:10:15;4.72;;;2.05;;
37455;SDS011;23316;50.718;7.328;2023-08-12T10:12:44;3.15;;;1.75;;
37455;SDS011;23316;50.718;7.328;2023-08-12T10:15:13;3.63;;;2.03;;
37455;SDS011;23316;50.718;7.328;2023-08-12T10:17:41;2.42;;;2.05;;
37455;SDS011;23316;50.718;7.328;2023-08-12T10:20:12;4.20;;;2.08;;
37455;SDS011;23316;50.718;7.328;2023-08-12T10:22:40;7.10;;;2.15;;
37455;SDS011;23316;50.718;7.328;2023-08-12T10:25:11;2.55;;;1.77;;
37455;SDS011;23316;50.718;7.328;2023-08-12T10:27:40;4.10;;;1.80;;
37455;SDS011;23316;50.718;7.328;2023-08-12T10:30:10;3.85;;;2.22;;
37455;SDS011;23316;50.718;7.328;2023-08-12T10:32:39;2.80;;;1.90;;
37455;SDS011;23316;50.718;7.328;2023-08-12T10:35:07;8.82;;;2.00;;
37455;SDS011;23316;50.718;7.328;2023-08-12T10:37:35;1.90;;;1.73;;
37455;SDS011;23316;50.718;7.328;2023-08-12T10:40:03;2.70;;;1.65;;
37455;SDS011;23316;50.718;7.328;2023-08-12T10:42:42;2.47;;;1.63;;
37455;SDS011;23316;50.718;7.328;2023-08-12T10:45:12;3.17;;;1.63;;
37455;SDS011;23316;50.718;7.328;2023-08-12T10:47:47;3.60;;;1.80;;
37455;SDS011;23316;50.718;7.328;2023-08-12T10:50:35;5.47;;;1.83;;
37455;SDS011;23316;50.718;7.328;2023-08-12T10:53:20;3.47;;;1.77;;
37455;SDS011;23316;50.718;7.328;2023-08-12T10:55:55;8.10;;;1.73;;
37455;SDS011;23316;50.718;7.328;2023-08-12T10:58:24;2.85;;;1.20;;
37455;SDS011;23316;50.718;7.328;2023-08-12T11:00:57;3.47;;;1.80;;
37455;SDS011;23316;50.718;7.328;2023-08-12T11:03:24;3.10;;;1.65;;
37455;SDS011;23316;50.718;7.328;2023-08-12T11:05:52;3.97;;;1.70;;
37455;SDS011;23316;50.718;7.328;2023-08-12T11:08:26;2.58;;;1.58;;
37455;SDS011;23316;50.718;7.328;2023-08-12T11:10:55;2.42;;;1.20;;
37455;SDS011;23316;50.718;7.328;2023-08-12T11:13:26;2.90;;;1.60;;
37455;SDS011;23316;50.718;7.328;2023-08-12T11:16:05;2.67;;;1.38;;
37455;SDS011;23316;50.718;7.328;2023-08-12T11:18:34;3.30;;;1.85;;
37455;SDS011;23316;50.718;7.328;2023-08-12T11:21:01;3.70;;;1.67;;
37455;SDS011;23316;50.718;7.328;2023-08-12T11:23:29;2.97;;;2.30;;
37455;SDS011;23316;50.718;7.328;2023-08-12T11:25:57;3.90;;;2.80;;
37455;SDS011;23316;50.718;7.328;2023-08-12T11:28:24;5.15;;;2.00;;
37455;SDS011;23316;50.718;7.328;2023-08-12T11:30:52;1.77;;;1.50;;
37455;SDS011;23316;50.718;7.328;2023-08-12T11:33:21;2.05;;;1.42;;
37455;SDS011;23316;50.718;7.328;2023-08-12T11:35:48;2.40;;;1.52;;
37455;SDS011;23316;50.718;7.328;2023-08-12T11:38:15;2.40;;;1.67;;
37455;SDS011;23316;50.718;7.328;2023-08-12T11:40:43;2.50;;;1.30;;
37455;SDS011;23316;50.718;7.328;2023-08-12T11:43:10;2.55;;;1.65;;
37455;SDS011;23316;50.718;7.328;2023-08-12T11:45:41;1.98;;;1.50;;
37455;SDS011;23316;50.718;7.328;2023-08-12T11:48:09;2.33;;;1.30;;
37455;SDS011;23316;50.718;7.328;2023-08-12T11:50:37;1.67;;;1.38;;
37455;SDS011;23316;50.718;7.328;2023-08-12T11:53:05;1.50;;;1.35;;
37455;SDS011;23316;50.718;7.328;2023-08-12T11:55:33;2.58;;;1.30;;
37455;SDS011;23316;50.718;7.328;2023-08-12T11:58:01;1.27;;;1.17;;
37455;SDS011;23316;50.718;7.328;2023-08-12T12:00:29;1.63;;;1.20;;
37455;SDS011;23316;50.718;7.328;2023-08-12T12:03:01;2.83;;;1.30;;
37455;SDS011;23316;50.718;7.328;2023-08-12T12:05:32;2.03;;;1.30;;
37455;SDS011;23316;50.718;7.328;2023-08-12T12:08:02;1.65;;;1.17;;
37455;SDS011;23316;50.718;7.328;2023-08-12T12:10:34;2.42;;;1.30;;
37455;SDS011;23316;50.718;7.328;2023-08-12T12:13:04;2.95;;;1.13;;
37455;SDS011;23316;50.718;7.328;2023-08-12T12:15:37;2.42;;;1.08;;
37455;SDS011;23316;50.718;7.328;2023-08-12T12:18:10;2.03;;;1.25;;
37455;SDS011;23316;50.718;7.328;2023-08-12T12:20:42;1.30;;;1.20;;
37455;SDS011;23316;50.718;7.328;2023-08-12T12:23:21;1.90;;;1.27;;
37455;SDS011;23316;50.718;7.328;2023-08-12T12:25:48;3.80;;;1.40;;
37455;SDS011;23316;50.718;7.328;2023-08-12T12:28:15;3.17;;;1.73;;
37455;SDS011;23316;50.718;7.328;2023-08-12T12:30:43;2.22;;;1.48;;
37455;SDS011;23316;50.718;7.328;2023-08-12T12:33:10;2.08;;;1.33;;
37455;SDS011;23316;50.718;7.328;2023-08-12T12:35:37;3.25;;;1.40;;
37455;SDS011;23316;50.718;7.328;2023-08-12T12:38:04;3.15;;;1.25;;
37455;SDS011;23316;50.718;7.328;2023-08-12T12:40:33;2.30;;;1.27;;
37455;SDS011;23316;50.718;7.328;2023-08-12T12:43:00;2.28;;;1.30;;
37455;SDS011;23316;50.718;7.328;2023-08-12T12:45:28;2.13;;;1.20;;
37455;SDS011;23316;50.718;7.328;2023-08-12T12:47:55;2.58;;;1.40;;
37455;SDS011;23316;50.718;7.328;2023-08-12T12:50:23;3.50;;;1.90;;
37455;SDS011;23316;50.718;7.328;2023-08-12T12:52:50;2.35;;;1.40;;
37455;SDS011;23316;50.718;7.328;2023-08-12T12:55:17;3.13;;;1.40;;
37455;SDS011;23316;50.718;7.328;2023-08-12T12:57:47;1.90;;;1.30;;
37455;SDS011;23316;50.718;7.328;2023-08-12T13:00:14;1.95;;;1.00;;
37455;SDS011;23316;50.718;7.328;2023-08-12T13:02:41;2.92;;;1.35;;
37455;SDS011;23316;50.718;7.328;2023-08-12T13:05:09;1.60;;;1.30;;
37455;SDS011;23316;50.718;7.328;2023-08-12T13:07:36;1.52;;;1.30;;
37455;SDS011;23316;50.718;7.328;2023-08-12T13:10:03;2.50;;;1.10;;
37455;SDS011;23316;50.718;7.328;2023-08-12T13:12:31;2.45;;;1.33;;
37455;SDS011;23316;50.718;7.328;2023-08-12T13:15:00;2.88;;;1.25;;
37455;SDS011;23316;50.718;7.328;2023-08-12T13:17:28;2.92;;;1.08;;
37455;SDS011;23316;50.718;7.328;2023-08-12T13:19:55;4.13;;;1.20;;
37455;SDS011;23316;50.718;7.328;2023-08-12T13:22:22;1.30;;;1.00;;
37455;SDS011;23316;50.718;7.328;2023-08-12T13:24:49;3.38;;;1.15;;
37455;SDS011;23316;50.718;7.328;2023-08-12T13:27:16;1.75;;;1.23;;
37455;SDS011;23316;50.718;7.328;2023-08-12T13:29:44;1.50;;;1.17;;
37455;SDS011;23316;50.718;7.328;2023-08-12T13:32:12;1.98;;;0.85;;
37455;SDS011;23316;50.718;7.328;2023-08-12T13:34:40;2.78;;;1.25;;
37455;SDS011;23316;50.718;7.328;2023-08-12T13:37:08;1.95;;;1.10;;
37455;SDS011;23316;50.718;7.328;2023-08-12T13:39:36;1.48;;;1.00;;
37455;SDS011;23316;50.718;7.328;2023-08-12T13:42:03;1.55;;;1.00;;
37455;SDS011;23316;50.718;7.328;2023-08-12T13:44:30;4.90;;;1.40;;
37455;SDS011;23316;50.718;7.328;2023-08-12T13:46:58;3.35;;;1.23;;
37455;SDS011;23316;50.718;7.328;2023-08-12T13:49:26;1.48;;;0.90;;
37455;SDS011;23316;50.718;7.328;2023-08-12T13:51:53;2.70;;;1.10;;
37455;SDS011;23316;50.718;7.328;2023-08-12T13:54:21;1.55;;;1.20;;
37455;SDS011;23316;50.718;7.328;2023-08-12T13:56:48;0.77;;;0.63;;
37455;SDS011;23316;50.718;7.328;2023-08-12T13:59:15;1.73;;;0.88;;
37455;SDS011;23316;50.718;7.328;2023-08-12T14:01:43;3.47;;;1.33;;
37455;SDS011;23316;50.718;7.328;2023-08-12T14:04:10;6.00;;;0.90;;
37455;SDS011;23316;50.718;7.328;2023-08-12T14:06:39;0.95;;;0.85;;
37455;SDS011;23316;50.718;7.328;2023-08-12T14:09:06;1.50;;;0.90;;
37455;SDS011;23316;50.718;7.328;2023-08-12T14:11:34;1.67;;;1.02;;
37455;SDS011;23316;50.718;7.328;2023-08-12T14:14:01;2.60;;;0.70;;
37455;SDS011;23316;50.718;7.328;2023-08-12T14:16:29;3.10;;;1.10;;
37455;SDS011;23316;50.718;7.328;2023-08-12T14:18:56;1.80;;;1.00;;
37455;SDS011;23316;50.718;7.328;2023-08-12T14:21:24;1.65;;;0.93;;
37455;SDS011;23316;50.718;7.328;2023-08-12T14:23:52;1.38;;;0.90;;
37455;SDS011;23316;50.718;7.328;2023-08-12T14:26:19;0.95;;;0.50;;
37455;SDS011;23316;50.718;7.328;2023-08-12T14:28:49;1.00;;;0.20;;
37455;SDS011;23316;50.718;7.328;2023-08-12T14:31:17;0.32;;;0.30;;
37455;SDS011;23316;50.718;7.328;2023-08-12T14:33:44;0.75;;;0.32;;
37455;SDS011;23316;50.718;7.328;2023-08-12T14:36:11;0.30;;;0.22;;
37455;SDS011;23316;50.718;7.328;2023-08-12T14:38:38;0.40;;;0.30;;
37455;SDS011;23316;50.718;7.328;2023-08-12T14:41:07;0.65;;;0.40;;
37455;SDS011;23316;50.718;7.328;2023-08-12T14:43:34;0.40;;;0.30;;
37455;SDS011;23316;50.718;7.328;2023-08-12T14:46:02;1.48;;;0.30;;
37455;SDS011;23316;50.718;7.328;2023-08-12T14:48:30;4.05;;;0.30;;
37455;SDS011;23316;50.718;7.328;2023-08-12T14:50:58;0.32;;;0.22;;
37455;SDS011;23316;50.718;7.328;2023-08-12T14:53:25;0.40;;;0.30;;
37455;SDS011;23316;50.718;7.328;2023-08-12T14:55:53;0.68;;;0.40;;
37455;SDS011;23316;50.718;7.328;2023-08-12T14:58:22;0.52;;;0.20;;
37455;SDS011;23316;50.718;7.328;2023-08-12T15:00:49;0.73;;;0.28;;